Time;durP1;ratioP1;P1;durP2;ratioP2;P2;SDS_P1;SDS_P2;PMS_P1;PMS_P2;Temp;Humidity;BMP_temperature;BMP_pressure;BME280_temperature;BME280_humidity;BME280_pressure;Samples;Min_cycle;Max_cycle;Signal;HPM_P1;HPM_P2
2023/05/25 00:01:35;;;;;;;22.80;6.45;;;8.80;99.90;;;;;;5098983;28;20043;-71
2023/05/25 00:04:02;;;;;;;21.52;6.40;;;8.80;99.90;;;;;;5116937;28;20043;-71
2023/05/25 00:06:31;;;;;;;16.73;6.05;;;8.70;99.90;;;;;;5116927;28;20098;-74
2023/05/25 00:08:57;;;;;;;14.32;5.20;;;8.60;99.90;;;;;;5099690;28;20047;-71
2023/05/25 00:11:23;;;;;;;20.30;5.32;;;8.60;99.90;;;;;;5098727;28;20047;-71
2023/05/25 00:13:50;;;;;;;17.90;5.65;;;8.60;99.90;;;;;;5099120;28;20083;-71
2023/05/25 00:16:16;;;;;;;19.33;5.95;;;8.60;99.90;;;;;;5116702;28;20043;-71
2023/05/25 00:18:42;;;;;;;16.58;5.90;;;8.60;99.90;;;;;;5099543;28;20054;-71
2023/05/25 00:21:09;;;;;;;18.35;6.30;;;8.60;99.90;;;;;;5116787;28;20051;-72
2023/05/25 00:23:35;;;;;;;15.60;5.70;;;8.60;99.90;;;;;;5116861;28;20044;-71
2023/05/25 00:26:02;;;;;;;22.38;6.18;;;8.60;99.90;;;;;;5115336;28;20054;-71
2023/05/25 00:28:28;;;;;;;18.42;5.82;;;8.60;99.90;;;;;;5117061;28;20051;-71
2023/05/25 00:30:53;;;;;;;24.00;5.93;;;8.50;99.90;;;;;;5116471;28;20093;-71
2023/05/25 00:33:19;;;;;;;17.70;5.90;;;8.50;99.90;;;;;;5116933;28;20428;-71
2023/05/25 00:35:45;;;;;;;20.10;6.70;;;8.50;99.90;;;;;;5116446;28;20054;-71
2023/05/25 00:38:16;;;;;;;23.52;6.88;;;8.40;99.90;;;;;;5116582;28;20044;-71
2023/05/25 00:40:42;;;;;;;19.98;6.53;;;8.40;99.90;;;;;;5116322;28;20112;-71
2023/05/25 00:43:08;;;;;;;20.80;6.80;;;8.40;99.90;;;;;;5097981;28;20088;-71
2023/05/25 00:45:34;;;;;;;22.20;6.93;;;8.40;99.90;;;;;;5116719;28;20050;-71
2023/05/25 00:48:01;;;;;;;22.30;7.30;;;8.40;99.90;;;;;;5098128;28;20043;-71
2023/05/25 00:50:38;;;;;;;25.90;7.43;;;8.40;99.90;;;;;;5116883;28;20177;-71
2023/05/25 00:53:08;;;;;;;22.48;6.88;;;8.40;99.90;;;;;;5116431;28;20070;-71
2023/05/25 00:56:01;;;;;;;22.52;6.68;;;8.30;99.90;;;;;;5098435;28;20051;-71
2023/05/25 00:58:29;;;;;;;18.95;6.32;;;8.30;99.90;;;;;;5115976;28;20092;-71
2023/05/25 01:00:57;;;;;;;20.73;6.18;;;8.30;99.90;;;;;;5097695;28;20047;-70
2023/05/25 01:03:26;;;;;;;21.08;6.95;;;8.30;99.90;;;;;;5097656;28;20044;-70
2023/05/25 01:05:54;;;;;;;25.23;7.28;;;8.20;99.90;;;;;;5116042;28;20055;-71
2023/05/25 01:08:23;;;;;;;24.15;7.22;;;8.30;99.90;;;;;;5115640;28;20052;-71
2023/05/25 01:10:50;;;;;;;23.08;7.65;;;8.30;99.90;;;;;;5115697;28;20043;-70
2023/05/25 01:13:18;;;;;;;19.88;6.55;;;8.30;99.90;;;;;;5115233;28;20083;-70
2023/05/25 01:15:45;;;;;;;29.05;6.80;;;8.20;99.90;;;;;;5097388;28;20057;-70
2023/05/25 01:18:14;;;;;;;20.05;6.63;;;8.20;99.90;;;;;;5081402;28;20059;-70
2023/05/25 01:21:19;;;;;;;21.80;6.22;;;8.20;99.90;;;;;;5115277;28;20090;-70
2023/05/25 01:24:20;;;;;;;23.85;6.93;;;8.20;99.90;;;;;;5097279;28;20039;-71
2023/05/25 01:26:54;;;;;;;22.65;6.63;;;8.20;99.90;;;;;;5097739;28;20408;-71
2023/05/25 01:29:22;;;;;;;22.15;7.10;;;8.20;99.90;;;;;;5115051;28;20493;-78
2023/05/25 01:31:49;;;;;;;22.50;6.63;;;8.10;99.90;;;;;;5096982;28;20039;-70
2023/05/25 01:34:15;;;;;;;23.90;6.88;;;8.20;99.90;;;;;;5097955;28;20073;-69
2023/05/25 01:36:41;;;;;;;26.77;7.10;;;8.10;99.90;;;;;;5096676;28;20127;-69
2023/05/25 01:39:09;;;;;;;25.13;6.65;;;8.10;99.90;;;;;;5080059;28;20130;-69
2023/05/25 01:41:35;;;;;;;27.20;7.20;;;8.10;99.90;;;;;;5114928;28;20126;-69
2023/05/25 01:44:01;;;;;;;20.80;6.78;;;8.10;99.90;;;;;;5114925;28;20126;-70
2023/05/25 01:46:30;;;;;;;23.65;6.20;;;8.10;99.90;;;;;;5097002;28;20039;-72
2023/05/25 01:49:28;;;;;;;21.95;6.38;;;8.10;99.90;;;;;;5114526;28;20047;-69
2023/05/25 01:52:06;;;;;;;22.13;6.15;;;8.10;99.90;;;;;;5115583;28;20046;-69
2023/05/25 01:54:42;;;;;;;24.17;6.40;;;8.10;99.90;;;;;;5096712;28;20131;-70
2023/05/25 01:57:12;;;;;;;23.20;5.93;;;8.00;99.90;;;;;;5114711;28;20050;-70
2023/05/25 01:59:41;;;;;;;21.58;6.55;;;8.00;99.90;;;;;;5079423;28;20055;-70
2023/05/25 02:02:07;;;;;;;22.65;6.60;;;8.00;99.90;;;;;;5115383;28;20040;-70
2023/05/25 02:04:34;;;;;;;22.63;7.03;;;8.00;99.90;;;;;;5114415;28;20059;-70
2023/05/25 02:07:00;;;;;;;26.53;7.30;;;8.00;99.90;;;;;;5080038;28;20059;-70
2023/05/25 02:09:25;;;;;;;21.65;7.07;;;8.00;99.90;;;;;;5114435;28;20789;-76
2023/05/25 02:11:51;;;;;;;19.83;6.60;;;8.00;99.90;;;;;;5114440;28;20097;-70
2023/05/25 02:14:17;;;;;;;27.63;7.10;;;8.00;99.90;;;;;;5114365;28;20067;-70
2023/05/25 02:16:44;;;;;;;23.85;6.45;;;7.90;99.90;;;;;;5096638;28;20051;-70
2023/05/25 02:19:13;;;;;;;25.35;7.78;;;7.90;99.90;;;;;;5114229;28;20054;-70
2023/05/25 02:21:40;;;;;;;24.38;7.32;;;8.00;99.90;;;;;;5096179;28;20083;-70
2023/05/25 02:24:08;;;;;;;21.90;6.95;;;7.90;99.90;;;;;;5096881;28;20051;-71
2023/05/25 02:26:37;;;;;;;21.15;6.93;;;7.90;99.90;;;;;;5096916;28;20048;-70
2023/05/25 02:29:04;;;;;;;24.50;7.25;;;7.90;99.90;;;;;;5114875;28;20054;-70
2023/05/25 02:31:30;;;;;;;21.48;7.25;;;7.80;99.90;;;;;;5114330;28;20094;-71
2023/05/25 02:33:56;;;;;;;26.35;6.90;;;7.80;99.90;;;;;;5114616;28;20480;-70
2023/05/25 02:36:22;;;;;;;22.15;7.43;;;7.90;99.90;;;;;;5113768;28;20051;-69
2023/05/25 02:38:51;;;;;;;17.05;6.07;;;7.80;99.90;;;;;;5096337;28;20130;-70
2023/05/25 02:41:19;;;;;;;21.42;6.80;;;7.80;99.90;;;;;;5114165;28;20397;-69
2023/05/25 02:43:45;;;;;;;19.83;6.10;;;7.80;99.90;;;;;;5095618;28;20039;-69
2023/05/25 02:46:11;;;;;;;23.58;7.15;;;7.80;99.90;;;;;;5113923;28;20096;-70
2023/05/25 02:48:36;;;;;;;23.67;7.05;;;7.80;99.90;;;;;;5113095;28;20055;-70
2023/05/25 02:51:02;;;;;;;21.95;6.88;;;7.80;99.90;;;;;;5095910;28;20040;-70
2023/05/25 02:53:28;;;;;;;24.00;6.72;;;7.80;99.90;;;;;;5096536;28;20079;-69
2023/05/25 02:55:55;;;;;;;25.00;7.10;;;7.80;99.90;;;;;;5114451;28;20448;-69
2023/05/25 02:58:21;;;;;;;27.65;7.57;;;7.70;99.90;;;;;;5113790;28;20051;-69
2023/05/25 03:00:48;;;;;;;28.30;7.05;;;7.70;99.90;;;;;;5114124;28;20047;-70
2023/05/25 03:03:14;;;;;;;24.67;7.00;;;7.70;99.90;;;;;;5113608;28;20055;-69
2023/05/25 03:05:39;;;;;;;24.15;7.28;;;7.70;99.90;;;;;;5095524;28;20052;-70
2023/05/25 03:08:05;;;;;;;26.50;7.10;;;7.70;99.90;;;;;;5113640;28;20047;-69
2023/05/25 03:10:31;;;;;;;27.00;7.78;;;7.70;99.90;;;;;;5113658;28;20040;-69
2023/05/25 03:12:57;;;;;;;21.80;8.18;;;7.70;99.90;;;;;;5113545;28;20079;-69
2023/05/25 03:15:22;;;;;;;21.13;7.10;;;7.70;99.90;;;;;;5113506;28;20048;-70
2023/05/25 03:17:49;;;;;;;23.08;7.32;;;7.60;99.90;;;;;;5113750;28;20070;-69
2023/05/25 03:20:15;;;;;;;32.53;7.70;;;7.60;99.90;;;;;;5095789;28;20509;-70
2023/05/25 03:22:44;;;;;;;26.00;8.27;;;7.60;99.90;;;;;;5113535;28;20382;-70
2023/05/25 03:25:11;;;;;;;22.40;7.78;;;7.70;99.90;;;;;;5113375;28;20114;-70
2023/05/25 03:27:38;;;;;;;23.20;7.18;;;7.60;99.90;;;;;;5078849;28;20048;-71
2023/05/25 03:30:04;;;;;;;26.08;8.05;;;7.60;99.90;;;;;;5113380;28;20039;-70
2023/05/25 03:32:31;;;;;;;27.42;7.53;;;7.60;99.90;;;;;;5113272;28;20047;-70
2023/05/25 03:34:57;;;;;;;30.70;8.13;;;7.60;99.90;;;;;;5113942;28;20109;-71
2023/05/25 03:37:22;;;;;;;29.67;7.75;;;7.60;99.90;;;;;;5114145;28;20668;-70
2023/05/25 03:39:48;;;;;;;30.38;8.00;;;7.60;99.90;;;;;;5095276;28;20047;-70
2023/05/25 03:42:14;;;;;;;24.42;7.70;;;7.60;99.90;;;;;;5113565;28;20051;-70
2023/05/25 03:44:40;;;;;;;22.75;7.50;;;7.70;99.90;;;;;;5095090;28;20101;-71
2023/05/25 03:47:05;;;;;;;27.95;8.30;;;7.70;99.90;;;;;;5095012;28;20047;-71
2023/05/25 03:49:31;;;;;;;26.90;8.60;;;7.70;99.90;;;;;;5113273;28;20050;-70
2023/05/25 03:52:00;;;;;;;22.83;7.88;;;7.70;99.90;;;;;;5094870;28;20043;-70
2023/05/25 03:54:26;;;;;;;26.60;8.57;;;7.70;99.90;;;;;;5113249;28;20051;-70
2023/05/25 03:56:51;;;;;;;29.73;8.35;;;7.80;99.90;;;;;;5078205;28;20089;-71
2023/05/25 03:59:17;;;;;;;22.70;7.78;;;7.70;99.90;;;;;;5113583;28;20043;-70
2023/05/25 04:01:43;;;;;;;23.85;7.55;;;7.80;99.90;;;;;;5082097;28;20078;-70
2023/05/25 04:04:09;;;;;;;29.50;8.73;;;7.80;99.90;;;;;;5098556;28;20135;-72
2023/05/25 04:06:36;;;;;;;22.50;7.95;;;7.80;99.90;;;;;;5117010;28;20130;-69
2023/05/25 04:09:05;;;;;;;26.10;7.70;;;7.80;99.90;;;;;;5099546;28;20086;-69
2023/05/25 04:11:30;;;;;;;28.33;9.90;;;7.80;99.90;;;;;;5098774;28;20385;-70
2023/05/25 04:13:56;;;;;;;30.77;8.07;;;7.90;99.90;;;;;;5116667;28;20042;-70
2023/05/25 04:16:22;;;;;;;22.98;8.02;;;7.90;99.90;;;;;;5117267;28;20478;-70
2023/05/25 04:18:48;;;;;;;32.65;8.50;;;7.90;99.90;;;;;;5116607;28;20066;-70
2023/05/25 04:21:13;;;;;;;29.40;8.50;;;8.00;99.90;;;;;;5116643;28;20040;-70
2023/05/25 04:23:40;;;;;;;27.77;8.43;;;8.00;99.90;;;;;;5098303;28;20446;-69
2023/05/25 04:26:09;;;;;;;22.85;7.68;;;8.00;99.90;;;;;;5081738;28;20091;-69
2023/05/25 04:28:35;;;;;;;23.75;7.50;;;8.20;99.90;;;;;;5116486;28;20044;-68
2023/05/25 04:31:02;;;;;;;26.50;7.38;;;8.20;99.90;;;;;;5116353;28;20051;-69
2023/05/25 04:33:28;;;;;;;23.15;8.27;;;8.30;99.90;;;;;;5098183;28;20055;-70
2023/05/25 04:35:57;;;;;;;23.83;8.30;;;8.40;99.90;;;;;;5116263;28;20044;-70
2023/05/25 04:38:24;;;;;;;26.27;7.63;;;8.50;99.90;;;;;;5116791;28;20056;-70
2023/05/25 04:40:53;;;;;;;23.73;7.50;;;8.50;99.90;;;;;;5116121;28;20056;-70
2023/05/25 04:43:19;;;;;;;29.98;8.73;;;8.60;99.90;;;;;;5116264;28;20477;-69
2023/05/25 04:45:45;;;;;;;28.25;8.13;;;8.70;99.90;;;;;;5116612;28;20055;-70
2023/05/25 04:48:12;;;;;;;21.85;8.02;;;8.70;99.90;;;;;;5115854;28;20043;-70
2023/05/25 04:50:40;;;;;;;21.63;8.23;;;8.80;99.90;;;;;;5098128;28;20393;-70
2023/05/25 04:53:06;;;;;;;27.88;7.82;;;8.80;99.90;;;;;;5115997;28;20140;-70
2023/05/25 04:55:32;;;;;;;24.77;7.50;;;8.90;99.90;;;;;;5115987;28;20039;-69
2023/05/25 04:57:58;;;;;;;19.98;7.10;;;9.00;99.90;;;;;;5097824;28;20039;-70
2023/05/25 05:00:23;;;;;;;17.45;7.20;;;9.00;99.90;;;;;;5115939;28;20422;-69
2023/05/25 05:02:50;;;;;;;23.85;7.90;;;9.10;99.90;;;;;;5115856;28;20130;-75
2023/05/25 05:05:16;;;;;;;25.48;7.20;;;9.20;99.90;;;;;;5097363;28;20059;-69
2023/05/25 05:07:42;;;;;;;25.02;7.07;;;9.20;99.90;;;;;;5097667;28;20051;-73
2023/05/25 05:10:08;;;;;;;26.15;7.00;;;9.30;99.90;;;;;;5081292;28;20100;-69
2023/05/25 05:12:34;;;;;;;24.10;7.35;;;9.40;99.90;;;;;;5114920;28;20401;-69
2023/05/25 05:15:00;;;;;;;24.35;7.75;;;9.50;99.90;;;;;;5115524;28;20043;-70
2023/05/25 05:17:26;;;;;;;21.00;7.80;;;9.50;99.90;;;;;;5115554;28;20051;-70
2023/05/25 05:19:52;;;;;;;21.58;7.93;;;9.60;99.90;;;;;;5080732;28;20047;-72
2023/05/25 05:22:18;;;;;;;24.23;7.57;;;9.80;99.90;;;;;;5116013;28;20488;-71
2023/05/25 05:24:44;;;;;;;23.00;7.90;;;9.90;99.90;;;;;;5115319;28;20032;-70
2023/05/25 05:27:12;;;;;;;23.00;6.93;;;9.90;99.90;;;;;;5115329;28;20070;-71
2023/05/25 05:29:38;;;;;;;23.27;7.72;;;10.00;99.90;;;;;;5097654;28;20512;-71
2023/05/25 05:32:04;;;;;;;19.98;7.28;;;10.10;99.90;;;;;;5114973;28;20176;-69
2023/05/25 05:34:30;;;;;;;28.38;7.85;;;10.20;99.90;;;;;;5080542;28;20087;-69
2023/05/25 05:36:56;;;;;;;22.63;8.43;;;10.30;99.90;;;;;;5115044;28;20452;-70
2023/05/25 05:39:21;;;;;;;23.80;8.23;;;10.40;99.90;;;;;;5115833;28;20044;-71
2023/05/25 05:41:47;;;;;;;20.10;7.57;;;10.50;99.90;;;;;;5115012;28;20129;-70
2023/05/25 05:44:13;;;;;;;20.48;6.65;;;10.60;99.90;;;;;;5096765;28;20119;-71
2023/05/25 05:46:38;;;;;;;16.38;6.57;;;10.60;99.90;;;;;;5097050;28;20043;-70
2023/05/25 05:49:04;;;;;;;19.60;7.20;;;10.70;99.90;;;;;;5063341;28;20130;-70
2023/05/25 05:51:30;;;;;;;24.25;7.32;;;10.80;99.90;;;;;;5096880;28;20481;-70
2023/05/25 05:53:56;;;;;;;19.35;7.18;;;10.80;99.90;;;;;;5114688;28;20046;-80
2023/05/25 05:56:22;;;;;;;24.42;8.18;;;10.90;99.90;;;;;;5114736;28;20048;-70
2023/05/25 05:58:48;;;;;;;22.80;6.97;;;11.00;99.90;;;;;;5064145;28;20055;-71
2023/05/25 06:01:17;;;;;;;21.48;6.88;;;11.10;99.90;;;;;;5115378;28;20082;-71
2023/05/25 06:03:43;;;;;;;18.40;6.43;;;11.10;99.90;;;;;;5096471;28;20388;-72
2023/05/25 06:06:09;;;;;;;24.48;6.35;;;11.20;99.90;;;;;;5079624;28;20055;-69
2023/05/25 06:08:35;;;;;;;22.23;7.57;;;11.30;99.90;;;;;;5114586;28;20103;-70
2023/05/25 06:11:00;;;;;;;19.67;6.68;;;11.40;99.90;;;;;;5096872;28;20047;-72
2023/05/25 06:13:26;;;;;;;17.48;6.50;;;11.50;99.90;;;;;;5096807;28;20058;-71
2023/05/25 06:15:52;;;;;;;23.45;5.80;;;11.60;99.90;;;;;;5114957;28;20044;-72
2023/05/25 06:18:18;;;;;;;23.83;6.65;;;11.70;99.90;;;;;;5096391;28;20130;-69
2023/05/25 06:20:43;;;;;;;29.42;6.68;;;11.80;99.90;;;;;;5114845;28;20039;-72
2023/05/25 06:23:11;;;;;;;16.42;5.90;;;11.90;99.90;;;;;;5096158;28;20055;-71
2023/05/25 06:25:37;;;;;;;17.73;5.97;;;11.90;99.90;;;;;;5113958;28;20493;-70
2023/05/25 06:28:03;;;;;;;18.33;6.22;;;12.00;99.90;;;;;;5114144;28;20051;-70
2023/05/25 06:30:28;;;;;;;15.40;6.07;;;12.00;99.90;;;;;;5114669;28;20079;-69
2023/05/25 06:32:54;;;;;;;18.33;5.57;;;12.00;99.90;;;;;;5096543;28;20369;-70
2023/05/25 06:35:20;;;;;;;15.85;5.35;;;12.10;99.90;;;;;;5113700;28;20047;-69
2023/05/25 06:37:47;;;;;;;16.80;5.85;;;12.10;99.90;;;;;;5096104;28;20119;-69
2023/05/25 06:40:14;;;;;;;;;;;12.20;99.90;;;;;;5079574;28;20154;-70
2023/05/25 06:42:40;;;;;;;16.90;5.25;;;12.30;99.90;;;;;;5079518;28;19953;-72
2023/05/25 06:45:07;;;;;;;14.98;5.28;;;12.40;99.90;;;;;;5078790;28;20612;-70
2023/05/25 06:47:33;;;;;;;28.25;5.22;;;12.50;99.90;;;;;;5114683;28;20048;-71
2023/05/25 06:49:59;;;;;;;13.63;4.88;;;12.60;99.90;;;;;;5095722;28;20500;-70
2023/05/25 06:52:27;;;;;;;14.02;4.57;;;12.70;99.90;;;;;;5095514;28;20528;-69
2023/05/25 06:54:54;;;;;;;14.40;4.88;;;12.80;99.90;;;;;;5114094;28;20408;-70
2023/05/25 06:57:20;;;;;;;10.77;3.92;;;12.80;99.90;;;;;;5114211;28;20134;-70
2023/05/25 06:59:46;;;;;;;16.83;4.80;;;12.80;99.90;;;;;;5095912;28;20480;-68
2023/05/25 07:02:12;;;;;;;15.43;4.57;;;12.80;99.90;;;;;;5096018;28;20051;-70
2023/05/25 07:04:37;;;;;;;18.00;4.90;;;12.90;99.90;;;;;;5095668;28;20071;-71
2023/05/25 07:07:03;;;;;;;16.17;4.35;;;13.20;99.90;;;;;;5113724;28;20047;-71
2023/05/25 07:09:29;;;;;;;15.98;3.55;;;13.30;99.90;;;;;;5113587;28;20051;-70
2023/05/25 07:11:55;;;;;;;21.33;4.40;;;13.50;99.90;;;;;;5113868;28;20397;-70
2023/05/25 07:14:21;;;;;;;11.35;3.78;;;13.60;99.90;;;;;;5095444;28;20047;-70
2023/05/25 07:16:46;;;;;;;13.60;4.05;;;13.70;99.90;;;;;;5096397;28;20097;-70
2023/05/25 07:19:12;;;;;;;11.77;3.78;;;13.60;99.90;;;;;;5095769;28;20047;-70
2023/05/25 07:21:38;;;;;;;11.93;3.72;;;13.70;99.90;;;;;;5114229;28;20047;-68
2023/05/25 07:24:04;;;;;;;11.65;3.40;;;13.70;99.90;;;;;;5113419;28;20446;-71
2023/05/25 07:26:31;;;;;;;10.38;3.50;;;13.60;99.90;;;;;;5095179;28;20050;-72
2023/05/25 07:28:57;;;;;;;9.77;3.25;;;13.70;99.90;;;;;;5096304;28;20052;-69
2023/05/25 07:31:23;;;;;;;13.57;3.05;;;13.80;99.90;;;;;;5095644;28;20043;-71
2023/05/25 07:33:48;;;;;;;13.77;3.65;;;13.90;99.90;;;;;;5113198;28;20047;-70
2023/05/25 07:36:14;;;;;;;10.13;3.15;;;14.00;99.90;;;;;;5117063;28;20144;-71
2023/05/25 07:38:40;;;;;;;10.95;2.78;;;14.10;99.90;;;;;;5117436;28;20400;-70
2023/05/25 07:41:06;;;;;;;17.48;3.30;;;14.20;99.90;;;;;;5082136;28;20499;-70
2023/05/25 07:43:32;;;;;;;11.75;3.08;;;14.40;99.90;;;;;;5099212;28;20138;-71
2023/05/25 07:46:01;;;;;;;15.05;3.17;;;14.80;99.90;;;;;;5118127;28;20419;-69
2023/05/25 07:48:27;;;;;;;11.20;3.05;;;14.90;99.90;;;;;;5099008;28;20043;-71
2023/05/25 07:50:53;;;;;;;12.05;3.15;;;15.00;99.90;;;;;;5117768;28;20128;-73
2023/05/25 07:53:18;;;;;;;9.27;2.50;;;14.70;99.90;;;;;;5098998;28;20079;-71
2023/05/25 07:55:44;;;;;;;10.23;2.45;;;14.80;99.90;;;;;;5099085;28;20048;-71
2023/05/25 07:58:10;;;;;;;13.82;2.72;;;14.80;99.90;;;;;;5117174;28;20100;-72
2023/05/25 08:00:35;;;;;;;13.13;2.70;;;14.80;99.90;;;;;;5098620;28;20062;-72
2023/05/25 08:03:01;;;;;;;13.63;3.42;;;14.90;99.90;;;;;;5116997;28;20043;-70
2023/05/25 08:05:27;;;;;;;14.02;2.65;;;14.70;99.90;;;;;;5116755;28;20135;-71
2023/05/25 08:07:53;;;;;;;10.40;3.05;;;14.70;99.90;;;;;;5098609;28;20056;-71
2023/05/25 08:10:19;;;;;;;10.48;2.55;;;14.50;99.90;;;;;;5098877;28;20552;-71
2023/05/25 08:12:45;;;;;;;15.10;2.75;;;14.60;99.90;;;;;;5081647;28;20127;-71
2023/05/25 08:15:12;;;;;;;8.10;2.28;;;14.80;99.90;;;;;;5116706;28;20075;-70
2023/05/25 08:17:38;;;;;;;14.65;2.80;;;14.90;99.90;;;;;;5098746;28;20036;-72
2023/05/25 08:20:08;;;;;;;10.18;1.95;;;14.90;99.90;;;;;;5098569;28;20519;-70
2023/05/25 08:22:38;;;;;;;11.43;2.15;;;15.10;99.90;;;;;;5098627;28;20051;-69
2023/05/25 08:25:05;;;;;;;9.25;2.55;;;15.30;99.90;;;;;;5098235;28;20549;-71
2023/05/25 08:27:34;;;;;;;16.02;2.95;;;15.20;99.90;;;;;;5116496;28;20056;-71
2023/05/25 08:30:00;;;;;;;12.87;2.90;;;15.10;99.90;;;;;;5117116;28;20083;-70
2023/05/25 08:32:26;;;;;;;12.35;2.95;;;15.10;99.90;;;;;;5081549;28;20083;-70
2023/05/25 08:34:52;;;;;;;12.55;2.35;;;15.00;99.90;;;;;;5098347;28;20058;-72
2023/05/25 08:37:20;;;;;;;13.48;3.00;;;15.20;99.90;;;;;;5082231;28;20136;-80
2023/05/25 08:39:45;;;;;;;12.68;2.38;;;15.20;99.90;;;;;;5117015;28;20051;-70
2023/05/25 08:42:11;;;;;;;11.13;2.20;;;15.50;99.90;;;;;;5098106;28;20485;-70
2023/05/25 08:44:37;;;;;;;12.25;1.92;;;15.20;99.90;;;;;;5116116;28;20488;-72
2023/05/25 08:47:05;;;;;;;13.32;2.50;;;15.70;99.90;;;;;;5080261;28;20054;-69
2023/05/25 08:49:36;;;;;;;13.63;1.92;;;15.80;99.90;;;;;;5116104;28;20055;-69
2023/05/25 08:52:02;;;;;;;13.07;2.50;;;16.00;99.90;;;;;;5116156;28;20092;-69
2023/05/25 08:54:37;;;;;;;11.20;2.13;;;15.70;99.90;;;;;;5116029;28;20431;-73
2023/05/25 08:57:40;;;;;;;12.38;2.47;;;16.00;99.90;;;;;;5097906;28;20048;-71
2023/05/25 09:00:10;;;;;;;16.45;2.58;;;16.10;99.90;;;;;;5074005;28;20055;-70
2023/05/25 09:03:10;;;;;;;11.95;2.47;;;16.40;99.90;;;;;;5098283;28;20083;-71
2023/05/25 09:05:36;;;;;;;11.10;1.88;;;16.40;99.90;;;;;;5098094;28;20056;-71
2023/05/25 09:08:06;;;;;;;11.23;2.07;;;16.40;99.90;;;;;;5098020;28;20492;-70
2023/05/25 09:10:34;;;;;;;13.40;1.90;;;16.50;99.90;;;;;;5081341;28;20051;-71
2023/05/25 09:13:01;;;;;;;9.43;1.55;;;16.40;99.90;;;;;;5097646;28;20055;-69
2023/05/25 09:15:27;;;;;;;14.60;2.10;;;16.00;99.90;;;;;;5097622;28;20048;-70
2023/05/25 09:17:52;;;;;;;15.95;2.38;;;15.90;99.90;;;;;;5098250;28;20093;-74
2023/05/25 09:20:19;;;;;;;13.65;2.17;;;16.10;99.90;;;;;;5097172;28;20047;-72
2023/05/25 09:22:46;;;;;;;15.65;1.98;;;16.30;99.90;;;;;;5115503;28;20050;-71
2023/05/25 09:25:16;;;;;;;11.07;2.03;;;16.20;99.90;;;;;;5115323;28;20040;-70
2023/05/25 09:27:41;;;;;;;17.73;2.83;;;16.10;99.90;;;;;;5097068;28;20047;-73
2023/05/25 09:30:08;;;;;;;12.68;2.00;;;16.20;99.90;;;;;;5115960;28;20046;-70
2023/05/25 09:32:34;;;;;;;18.00;2.60;;;15.90;99.90;;;;;;5097160;28;20054;-70
2023/05/25 09:35:07;;;;;;;16.75;2.15;;;15.80;99.90;;;;;;5098030;28;20066;-71
2023/05/25 09:37:33;;;;;;;14.82;2.33;;;15.90;99.90;;;;;;5115067;28;20051;-72
2023/05/25 09:39:59;;;;;;;11.98;1.85;;;15.80;99.90;;;;;;5097186;28;20047;-72
2023/05/25 09:42:25;;;;;;;11.77;2.30;;;15.70;99.90;;;;;;5114967;28;20035;-72
2023/05/25 09:44:50;;;;;;;15.73;2.70;;;15.90;99.90;;;;;;5115944;28;20301;-71
2023/05/25 09:47:17;;;;;;;13.45;2.75;;;15.80;99.90;;;;;;5114994;28;20098;-71
2023/05/25 09:49:46;;;;;;;14.27;2.13;;;15.80;99.90;;;;;;5096951;28;20079;-71
2023/05/25 09:52:13;;;;;;;14.50;2.40;;;15.80;99.90;;;;;;5080516;28;20044;-70
2023/05/25 09:54:42;;;;;;;14.88;2.08;;;15.90;99.90;;;;;;5080075;28;20043;-74
2023/05/25 09:57:09;;;;;;;19.85;3.40;;;15.80;99.90;;;;;;5096372;28;20047;-70
2023/05/25 09:59:35;;;;;;;20.00;2.80;;;15.90;99.90;;;;;;5096986;28;20109;-70
2023/05/25 10:02:01;;;;;;;17.60;3.03;;;15.80;99.90;;;;;;5096803;28;20508;-73
2023/05/25 10:04:27;;;;;;;20.17;3.17;;;15.70;99.90;;;;;;5096385;28;20055;-74
2023/05/25 10:06:55;;;;;;;23.38;3.25;;;15.90;99.90;;;;;;5114832;28;20047;-72
2023/05/25 10:09:22;;;;;;;19.17;2.47;;;15.90;99.90;;;;;;5114641;28;20427;-71
2023/05/25 10:11:51;;;;;;;17.77;2.60;;;16.10;99.90;;;;;;5096400;28;20047;-73
2023/05/25 10:14:24;;;;;;;21.63;2.70;;;16.10;99.90;;;;;;5115147;28;20374;-72
2023/05/25 10:16:53;;;;;;;15.82;2.40;;;16.00;99.90;;;;;;5115228;28;20106;-70
2023/05/25 10:19:23;;;;;;;19.95;3.33;;;16.00;99.90;;;;;;5096130;28;20058;-69
2023/05/25 10:22:06;;;;;;;17.15;2.50;;;16.10;99.90;;;;;;5096960;28;20044;-71
2023/05/25 10:24:47;;;;;;;15.32;2.53;;;16.00;99.90;;;;;;5095738;28;20046;-73
2023/05/25 10:27:18;;;;;;;13.85;2.47;;;16.10;99.90;;;;;;5114770;28;20385;-69
2023/05/25 10:29:48;;;;;;;19.02;2.22;;;15.60;99.90;;;;;;5079523;28;20052;-69
2023/05/25 10:32:16;;;;;;;15.30;2.63;;;15.70;99.90;;;;;;5096928;28;20047;-73
2023/05/25 10:34:41;;;;;;;17.10;2.45;;;16.20;99.90;;;;;;5097020;28;20373;-72
2023/05/25 10:37:08;;;;;;;12.07;2.30;;;16.90;99.90;;;;;;5080037;28;20057;-69
2023/05/25 10:39:35;;;;;;;17.10;2.53;;;16.70;99.90;;;;;;5080087;28;20130;-75
2023/05/25 10:42:02;;;;;;;22.58;3.00;;;16.80;99.90;;;;;;5114121;28;20501;-69
2023/05/25 10:44:31;;;;;;;20.38;2.90;;;16.70;99.90;;;;;;5079724;28;20100;-71
2023/05/25 10:47:00;;;;;;;19.83;2.92;;;16.70;99.90;;;;;;5113916;28;20477;-70
2023/05/25 10:49:33;;;;;;;17.50;2.80;;;16.50;99.90;;;;;;5113878;28;20051;-72
2023/05/25 10:52:00;;;;;;;16.90;2.70;;;16.50;99.90;;;;;;5095699;28;20082;-69
2023/05/25 10:54:30;;;;;;;;;;;16.00;99.90;;;;;;5114306;28;20049;-69
2023/05/25 10:57:17;;;;;;;19.58;2.67;;;16.30;99.90;;;;;;5114618;28;20315;-69
2023/05/25 10:59:51;;;;;;;16.38;2.70;;;16.70;99.90;;;;;;5114097;28;20083;-68
2023/05/25 11:02:22;;;;;;;18.77;2.97;;;16.80;99.90;;;;;;5114123;28;20122;-70
2023/05/25 11:04:49;;;;;;;23.75;2.85;;;16.90;99.90;;;;;;5095735;28;20051;-70
2023/05/25 11:07:18;;;;;;;22.48;3.63;;;17.10;99.90;;;;;;5095573;28;20050;-69
2023/05/25 11:09:57;;;;;;;20.38;2.80;;;16.70;99.90;;;;;;5112868;28;20102;-70
2023/05/25 11:12:23;;;;;;;18.83;3.20;;;16.60;99.90;;;;;;5095398;28;20138;-69
2023/05/25 11:15:28;;;;;;;26.08;3.33;;;16.60;99.90;;;;;;5095224;28;20151;-74
2023/05/25 11:17:59;;;;;;;18.00;2.53;;;16.80;99.90;;;;;;5030912;28;20055;-71
2023/05/25 11:20:27;;;;;;;17.90;3.25;;;16.70;99.90;;;;;;5014624;28;20045;-70
2023/05/25 11:22:55;;;;;;;18.60;3.53;;;16.50;99.90;;;;;;5074471;28;20143;-69
2023/05/25 11:25:37;;;;;;;18.50;3.35;;;16.30;99.90;;;;;;5095250;28;20040;-72
2023/05/25 11:28:07;;;;;;;17.05;2.40;;;16.20;99.90;;;;;;5095211;28;20043;-71
2023/05/25 11:30:34;;;;;;;20.00;2.63;;;16.40;99.90;;;;;;5113996;28;20055;-72
2023/05/25 11:33:03;;;;;;;15.32;2.15;;;16.70;99.90;;;;;;5095446;28;20081;-72
2023/05/25 11:35:35;;;;;;;25.90;2.70;;;17.10;99.90;;;;;;5113449;28;20089;-72
2023/05/25 11:38:05;;;;;;;15.13;2.50;;;17.20;99.90;;;;;;5113929;28;20048;-69
2023/05/25 11:40:31;;;;;;;20.08;2.53;;;16.90;99.40;;;;;;5095945;28;20401;-70
2023/05/25 11:43:00;;;;;;;19.37;2.80;;;16.90;99.00;;;;;;5113359;28;20044;-71
2023/05/25 11:45:32;;;;;;;19.45;2.50;;;16.90;99.90;;;;;;5112967;28;20040;-69
2023/05/25 11:47:58;;;;;;;14.57;2.97;;;16.90;99.60;;;;;;5095577;28;20392;-70
2023/05/25 11:50:24;;;;;;;20.30;3.00;;;16.90;97.80;;;;;;5095484;28;20051;-72
2023/05/25 11:52:50;;;;;;;13.40;2.75;;;17.10;98.90;;;;;;5113844;28;20469;-71
2023/05/25 11:55:16;;;;;;;16.47;2.63;;;16.90;98.30;;;;;;5114106;28;20123;-72
2023/05/25 11:57:41;;;;;;;13.20;2.47;;;17.20;98.80;;;;;;5078431;28;20510;-71
2023/05/25 12:00:10;;;;;;;15.60;1.95;;;16.80;98.00;;;;;;5113193;28;20074;-71
2023/05/25 12:02:42;;;;;;;15.82;2.38;;;16.80;98.30;;;;;;5095196;28;20092;-70
2023/05/25 12:05:08;;;;;;;14.90;2.60;;;16.80;98.50;;;;;;5112998;28;20048;-68
2023/05/25 12:07:40;;;;;;;17.33;3.10;;;16.80;98.20;;;;;;5078042;28;20047;-69
2023/05/25 12:10:08;;;;;;;17.73;2.70;;;16.60;97.10;;;;;;5095215;28;20096;-69
2023/05/25 12:12:50;;;;;;;24.15;3.15;;;16.60;97.40;;;;;;5095732;28;20123;-69
2023/05/25 12:15:20;;;;;;;14.57;2.40;;;16.60;97.80;;;;;;5113073;28;20184;-70
2023/05/25 12:17:46;;;;;;;15.85;2.60;;;16.70;97.60;;;;;;5112977;28;20040;-71
2023/05/25 12:20:14;;;;;;;21.20;2.85;;;16.60;97.70;;;;;;5113666;28;20078;-72
2023/05/25 12:22:40;;;;;;;15.27;2.60;;;16.80;97.90;;;;;;5116849;28;20056;-71
2023/05/25 12:25:09;;;;;;;21.20;3.60;;;17.10;98.30;;;;;;5098270;28;20096;-69
2023/05/25 12:27:35;;;;;;;14.80;3.35;;;16.80;97.40;;;;;;5098783;28;20427;-70
2023/05/25 12:30:02;;;;;;;17.65;3.00;;;16.70;97.40;;;;;;5081945;28;20122;-70
2023/05/25 12:32:27;;;;;;;21.63;3.17;;;17.00;98.20;;;;;;5116465;28;20101;-72
2023/05/25 12:35:04;;;;;;;18.13;2.58;;;17.00;97.60;;;;;;5098227;28;20435;-70
2023/05/25 12:37:30;;;;;;;19.77;3.10;;;17.10;98.10;;;;;;5116300;28;20083;-70
2023/05/25 12:39:56;;;;;;;23.05;3.35;;;17.10;97.10;;;;;;5098434;28;20083;-72
2023/05/25 12:42:25;;;;;;;18.27;2.72;;;17.00;97.80;;;;;;5116981;28;20086;-70
2023/05/25 12:44:56;;;;;;;17.42;2.67;;;16.80;96.30;;;;;;5115740;28;20496;-80